sensor_id;sensor_type;location;lat;lon;timestamp;temperature;humidity
40636;DHT22;26642;55.766;37.828;2022-10-12T00:01:24;13.30;65.90
40636;DHT22;26642;55.766;37.828;2022-10-12T00:03:50;13.30;65.80
40636;DHT22;26642;55.766;37.828;2022-10-12T00:06:24;13.30;65.70
40636;DHT22;26642;55.766;37.828;2022-10-12T00:08:52;13.30;65.70
40636;DHT22;26642;55.766;37.828;2022-10-12T00:11:24;13.20;65.70
40636;DHT22;26642;55.766;37.828;2022-10-12T00:13:51;13.30;65.90
40636;DHT22;26642;55.766;37.828;2022-10-12T00:16:18;13.30;65.80
40636;DHT22;26642;55.766;37.828;2022-10-12T00:18:52;13.20;65.80
40636;DHT22;26642;55.766;37.828;2022-10-12T00:21:19;13.20;65.90
40636;DHT22;26642;55.766;37.828;2022-10-12T00:23:46;13.20;65.80
40636;DHT22;26642;55.766;37.828;2022-10-12T00:26:15;13.20;65.80
40636;DHT22;26642;55.766;37.828;2022-10-12T00:28:41;13.20;65.90
40636;DHT22;26642;55.766;37.828;2022-10-12T00:31:12;13.20;66.10
40636;DHT22;26642;55.766;37.828;2022-10-12T00:33:39;13.20;66.00
40636;DHT22;26642;55.766;37.828;2022-10-12T00:36:15;13.20;66.00
40636;DHT22;26642;55.766;37.828;2022-10-12T00:38:41;13.20;66.20
40636;DHT22;26642;55.766;37.828;2022-10-12T00:41:07;13.20;66.10
40636;DHT22;26642;55.766;37.828;2022-10-12T00:43:36;13.20;66.40
40636;DHT22;26642;55.766;37.828;2022-10-12T00:46:40;13.20;66.50
40636;DHT22;26642;55.766;37.828;2022-10-12T00:49:17;13.20;66.60
40636;DHT22;26642;55.766;37.828;2022-10-12T00:51:49;13.20;66.60
40636;DHT22;26642;55.766;37.828;2022-10-12T00:54:22;13.20;66.70
40636;DHT22;26642;55.766;37.828;2022-10-12T00:56:50;13.10;66.80
40636;DHT22;26642;55.766;37.828;2022-10-12T00:59:22;13.10;66.80
40636;DHT22;26642;55.766;37.828;2022-10-12T01:01:51;13.10;66.80
40636;DHT22;26642;55.766;37.828;2022-10-12T01:04:17;13.10;67.00
40636;DHT22;26642;55.766;37.828;2022-10-12T01:06:42;13.10;67.20
40636;DHT22;26642;55.766;37.828;2022-10-12T01:09:08;13.10;67.20
40636;DHT22;26642;55.766;37.828;2022-10-12T01:11:34;13.20;67.20
40636;DHT22;26642;55.766;37.828;2022-10-12T01:14:00;13.10;67.30
40636;DHT22;26642;55.766;37.828;2022-10-12T01:19:50;13.10;67.20
40636;DHT22;26642;55.766;37.828;2022-10-12T01:22:23;13.10;67.00
40636;DHT22;26642;55.766;37.828;2022-10-12T01:27:57;13.10;66.90
40636;DHT22;26642;55.766;37.828;2022-10-12T01:30:38;13.10;67.00
40636;DHT22;26642;55.766;37.828;2022-10-12T01:41:17;13.10;66.90
40636;DHT22;26642;55.766;37.828;2022-10-12T01:43:45;13.10;67.00
40636;DHT22;26642;55.766;37.828;2022-10-12T01:48:41;13.10;66.80
40636;DHT22;26642;55.766;37.828;2022-10-12T01:51:10;13.10;66.80
40636;DHT22;26642;55.766;37.828;2022-10-12T01:54:09;13.10;66.90
40636;DHT22;26642;55.766;37.828;2022-10-12T01:57:01;13.10;66.90
40636;DHT22;26642;55.766;37.828;2022-10-12T02:02:35;13.10;66.80
40636;DHT22;26642;55.766;37.828;2022-10-12T02:08:24;13.10;66.90
40636;DHT22;26642;55.766;37.828;2022-10-12T02:11:06;13.10;67.00
40636;DHT22;26642;55.766;37.828;2022-10-12T02:13:39;13.10;67.00
40636;DHT22;26642;55.766;37.828;2022-10-12T02:16:12;13.10;66.90
40636;DHT22;26642;55.766;37.828;2022-10-12T02:18:43;13.10;66.90
40636;DHT22;26642;55.766;37.828;2022-10-12T02:21:14;13.10;66.90
40636;DHT22;26642;55.766;37.828;2022-10-12T02:23:42;13.10;67.10
40636;DHT22;26642;55.766;37.828;2022-10-12T02:26:10;13.10;67.00
40636;DHT22;26642;55.766;37.828;2022-10-12T02:28:38;13.10;66.90
40636;DHT22;26642;55.766;37.828;2022-10-12T02:34:13;13.10;67.10
40636;DHT22;26642;55.766;37.828;2022-10-12T02:40:16;13.10;67.30
40636;DHT22;26642;55.766;37.828;2022-10-12T02:42:45;13.10;68.10
40636;DHT22;26642;55.766;37.828;2022-10-12T02:45:13;13.10;67.70
40636;DHT22;26642;55.766;37.828;2022-10-12T02:47:41;13.10;67.60
40636;DHT22;26642;55.766;37.828;2022-10-12T02:50:08;13.00;67.60
40636;DHT22;26642;55.766;37.828;2022-10-12T02:52:35;13.10;67.80
40636;DHT22;26642;55.766;37.828;2022-10-12T02:55:01;13.10;67.80
40636;DHT22;26642;55.766;37.828;2022-10-12T02:57:27;13.10;67.90
40636;DHT22;26642;55.766;37.828;2022-10-12T02:59:53;13.10;68.00
40636;DHT22;26642;55.766;37.828;2022-10-12T03:02:19;13.10;67.90
40636;DHT22;26642;55.766;37.828;2022-10-12T03:04:45;13.10;68.00
40636;DHT22;26642;55.766;37.828;2022-10-12T03:07:11;13.10;68.00
40636;DHT22;26642;55.766;37.828;2022-10-12T03:09:37;13.10;67.70
40636;DHT22;26642;55.766;37.828;2022-10-12T03:12:03;13.10;67.50
40636;DHT22;26642;55.766;37.828;2022-10-12T03:14:29;13.00;67.30
40636;DHT22;26642;55.766;37.828;2022-10-12T03:16:57;13.00;67.20
40636;DHT22;26642;55.766;37.828;2022-10-12T03:19:23;13.00;67.20
40636;DHT22;26642;55.766;37.828;2022-10-12T03:21:49;13.00;67.10
40636;DHT22;26642;55.766;37.828;2022-10-12T03:24:15;13.00;67.40
40636;DHT22;26642;55.766;37.828;2022-10-12T03:26:41;13.00;67.30
40636;DHT22;26642;55.766;37.828;2022-10-12T03:29:06;13.00;67.00
40636;DHT22;26642;55.766;37.828;2022-10-12T03:31:33;13.00;67.00
40636;DHT22;26642;55.766;37.828;2022-10-12T03:33:59;13.00;67.10
40636;DHT22;26642;55.766;37.828;2022-10-12T03:36:25;13.00;67.20
40636;DHT22;26642;55.766;37.828;2022-10-12T03:38:51;13.00;67.30
40636;DHT22;26642;55.766;37.828;2022-10-12T03:41:17;13.00;67.10
40636;DHT22;26642;55.766;37.828;2022-10-12T03:43:43;13.00;67.00
40636;DHT22;26642;55.766;37.828;2022-10-12T03:46:09;13.00;66.70
40636;DHT22;26642;55.766;37.828;2022-10-12T03:48:35;13.00;66.50
40636;DHT22;26642;55.766;37.828;2022-10-12T03:51:00;12.90;66.40
40636;DHT22;26642;55.766;37.828;2022-10-12T03:53:26;13.00;66.70
40636;DHT22;26642;55.766;37.828;2022-10-12T03:55:52;12.90;66.50
40636;DHT22;26642;55.766;37.828;2022-10-12T03:58:18;12.90;66.20
40636;DHT22;26642;55.766;37.828;2022-10-12T04:00:44;12.90;66.00
40636;DHT22;26642;55.766;37.828;2022-10-12T04:03:10;12.90;66.70
40636;DHT22;26642;55.766;37.828;2022-10-12T04:05:35;12.90;66.20
40636;DHT22;26642;55.766;37.828;2022-10-12T04:08:02;12.90;66.60
40636;DHT22;26642;55.766;37.828;2022-10-12T04:10:28;12.90;66.40
40636;DHT22;26642;55.766;37.828;2022-10-12T04:12:54;12.90;66.20
40636;DHT22;26642;55.766;37.828;2022-10-12T04:15:20;12.90;66.10
40636;DHT22;26642;55.766;37.828;2022-10-12T04:17:46;12.90;66.20
40636;DHT22;26642;55.766;37.828;2022-10-12T04:20:12;12.90;66.10
40636;DHT22;26642;55.766;37.828;2022-10-12T04:22:38;12.80;66.00
40636;DHT22;26642;55.766;37.828;2022-10-12T04:25:05;12.80;65.80
40636;DHT22;26642;55.766;37.828;2022-10-12T04:27:31;12.90;65.70
40636;DHT22;26642;55.766;37.828;2022-10-12T04:29:57;12.90;65.70
40636;DHT22;26642;55.766;37.828;2022-10-12T04:32:22;12.90;65.70
40636;DHT22;26642;55.766;37.828;2022-10-12T04:34:49;12.80;65.60
40636;DHT22;26642;55.766;37.828;2022-10-12T04:37:15;12.80;65.60
40636;DHT22;26642;55.766;37.828;2022-10-12T04:39:40;12.80;65.70
40636;DHT22;26642;55.766;37.828;2022-10-12T04:42:06;12.80;65.80
40636;DHT22;26642;55.766;37.828;2022-10-12T04:44:32;12.80;65.80
40636;DHT22;26642;55.766;37.828;2022-10-12T04:47:00;12.80;66.00
40636;DHT22;26642;55.766;37.828;2022-10-12T04:49:26;12.80;66.40
40636;DHT22;26642;55.766;37.828;2022-10-12T04:51:52;12.80;66.90
40636;DHT22;26642;55.766;37.828;2022-10-12T04:54:18;12.80;67.20
40636;DHT22;26642;55.766;37.828;2022-10-12T04:56:43;12.80;67.30
40636;DHT22;26642;55.766;37.828;2022-10-12T04:59:09;12.80;67.50
40636;DHT22;26642;55.766;37.828;2022-10-12T05:01:35;12.80;67.50
40636;DHT22;26642;55.766;37.828;2022-10-12T05:04:01;12.80;67.70
40636;DHT22;26642;55.766;37.828;2022-10-12T05:06:27;12.90;68.10
40636;DHT22;26642;55.766;37.828;2022-10-12T05:08:53;13.00;68.10
40636;DHT22;26642;55.766;37.828;2022-10-12T05:11:19;13.20;68.30
40636;DHT22;26642;55.766;37.828;2022-10-12T05:13:45;13.40;68.30
40636;DHT22;26642;55.766;37.828;2022-10-12T05:16:11;13.60;68.30
40636;DHT22;26642;55.766;37.828;2022-10-12T05:18:37;13.90;68.00
40636;DHT22;26642;55.766;37.828;2022-10-12T05:21:03;14.10;68.30
40636;DHT22;26642;55.766;37.828;2022-10-12T05:23:29;14.30;67.50
40636;DHT22;26642;55.766;37.828;2022-10-12T05:25:55;14.60;67.20
40636;DHT22;26642;55.766;37.828;2022-10-12T05:28:21;14.80;66.90
40636;DHT22;26642;55.766;37.828;2022-10-12T05:30:51;15.00;66.60
40636;DHT22;26642;55.766;37.828;2022-10-12T05:33:18;15.20;66.50
40636;DHT22;26642;55.766;37.828;2022-10-12T05:35:44;15.40;66.20
40636;DHT22;26642;55.766;37.828;2022-10-12T05:38:10;15.60;66.20
40636;DHT22;26642;55.766;37.828;2022-10-12T05:40:36;15.70;66.00
40636;DHT22;26642;55.766;37.828;2022-10-12T05:43:02;15.90;65.70
40636;DHT22;26642;55.766;37.828;2022-10-12T05:45:28;16.10;65.60
40636;DHT22;26642;55.766;37.828;2022-10-12T05:47:54;16.20;65.60
40636;DHT22;26642;55.766;37.828;2022-10-12T05:50:19;16.40;65.50
40636;DHT22;26642;55.766;37.828;2022-10-12T05:52:46;16.50;65.30
40636;DHT22;26642;55.766;37.828;2022-10-12T05:55:12;16.60;64.90
40636;DHT22;26642;55.766;37.828;2022-10-12T05:57:38;16.60;64.90
40636;DHT22;26642;55.766;37.828;2022-10-12T06:00:08;16.90;65.00
40636;DHT22;26642;55.766;37.828;2022-10-12T06:02:37;17.10;64.80
40636;DHT22;26642;55.766;37.828;2022-10-12T06:05:03;17.40;63.10
40636;DHT22;26642;55.766;37.828;2022-10-12T06:07:29;17.50;62.50
40636;DHT22;26642;55.766;37.828;2022-10-12T06:09:54;17.70;60.80
40636;DHT22;26642;55.766;37.828;2022-10-12T06:12:20;17.80;59.80
40636;DHT22;26642;55.766;37.828;2022-10-12T06:14:46;17.90;59.70
40636;DHT22;26642;55.766;37.828;2022-10-12T06:17:12;18.00;59.70
40636;DHT22;26642;55.766;37.828;2022-10-12T06:19:38;18.20;58.70
40636;DHT22;26642;55.766;37.828;2022-10-12T06:22:04;18.30;58.80
40636;DHT22;26642;55.766;37.828;2022-10-12T06:24:30;18.40;58.50
40636;DHT22;26642;55.766;37.828;2022-10-12T06:26:56;18.50;58.60
40636;DHT22;26642;55.766;37.828;2022-10-12T06:29:22;18.60;57.80
40636;DHT22;26642;55.766;37.828;2022-10-12T06:31:51;18.70;57.20
40636;DHT22;26642;55.766;37.828;2022-10-12T06:34:17;18.80;57.10
40636;DHT22;26642;55.766;37.828;2022-10-12T06:36:43;18.80;56.90
40636;DHT22;26642;55.766;37.828;2022-10-12T06:39:09;19.00;57.30
40636;DHT22;26642;55.766;37.828;2022-10-12T06:41:35;19.00;56.80
40636;DHT22;26642;55.766;37.828;2022-10-12T06:44:08;19.10;56.70
40636;DHT22;26642;55.766;37.828;2022-10-12T06:46:34;19.20;56.50
40636;DHT22;26642;55.766;37.828;2022-10-12T06:49:00;19.30;56.40
40636;DHT22;26642;55.766;37.828;2022-10-12T06:51:26;19.40;56.30
40636;DHT22;26642;55.766;37.828;2022-10-12T06:53:55;19.50;56.40
40636;DHT22;26642;55.766;37.828;2022-10-12T06:56:21;19.60;56.10
40636;DHT22;26642;55.766;37.828;2022-10-12T06:58:55;19.70;56.10
40636;DHT22;26642;55.766;37.828;2022-10-12T07:01:21;19.70;55.60
40636;DHT22;26642;55.766;37.828;2022-10-12T07:03:47;19.80;55.60
40636;DHT22;26642;55.766;37.828;2022-10-12T07:06:13;19.90;55.40
40636;DHT22;26642;55.766;37.828;2022-10-12T07:08:40;19.90;55.10
40636;DHT22;26642;55.766;37.828;2022-10-12T07:11:09;20.00;54.80
40636;DHT22;26642;55.766;37.828;2022-10-12T07:13:35;20.10;54.90
40636;DHT22;26642;55.766;37.828;2022-10-12T07:16:01;20.20;54.10
40636;DHT22;26642;55.766;37.828;2022-10-12T07:18:27;20.20;54.80
40636;DHT22;26642;55.766;37.828;2022-10-12T07:20:55;20.20;54.90
40636;DHT22;26642;55.766;37.828;2022-10-12T07:23:23;20.30;54.20
40636;DHT22;26642;55.766;37.828;2022-10-12T07:25:49;20.30;53.60
40636;DHT22;26642;55.766;37.828;2022-10-12T07:28:16;20.30;53.30
40636;DHT22;26642;55.766;37.828;2022-10-12T07:30:42;20.40;53.60
40636;DHT22;26642;55.766;37.828;2022-10-12T07:33:08;20.40;53.40
40636;DHT22;26642;55.766;37.828;2022-10-12T07:35:34;20.50;53.00
40636;DHT22;26642;55.766;37.828;2022-10-12T07:38:00;20.50;53.40
40636;DHT22;26642;55.766;37.828;2022-10-12T07:40:28;20.50;51.90
40636;DHT22;26642;55.766;37.828;2022-10-12T07:42:55;20.50;52.40
40636;DHT22;26642;55.766;37.828;2022-10-12T07:45:21;20.50;53.00
40636;DHT22;26642;55.766;37.828;2022-10-12T07:47:47;20.50;52.70
40636;DHT22;26642;55.766;37.828;2022-10-12T07:50:13;20.50;52.10
40636;DHT22;26642;55.766;37.828;2022-10-12T07:52:39;20.50;52.30
40636;DHT22;26642;55.766;37.828;2022-10-12T07:55:06;20.50;51.30
40636;DHT22;26642;55.766;37.828;2022-10-12T07:57:32;20.50;51.10
40636;DHT22;26642;55.766;37.828;2022-10-12T07:59:58;20.50;51.80
40636;DHT22;26642;55.766;37.828;2022-10-12T08:02:24;20.50;51.20
40636;DHT22;26642;55.766;37.828;2022-10-12T08:04:51;20.50;51.60
40636;DHT22;26642;55.766;37.828;2022-10-12T08:07:17;20.40;51.20
40636;DHT22;26642;55.766;37.828;2022-10-12T08:09:42;20.40;50.70
40636;DHT22;26642;55.766;37.828;2022-10-12T08:12:11;20.40;50.90
40636;DHT22;26642;55.766;37.828;2022-10-12T08:14:37;20.30;49.90
40636;DHT22;26642;55.766;37.828;2022-10-12T08:17:03;20.30;50.50
40636;DHT22;26642;55.766;37.828;2022-10-12T08:19:30;20.30;50.50
40636;DHT22;26642;55.766;37.828;2022-10-12T08:21:56;20.30;50.40
40636;DHT22;26642;55.766;37.828;2022-10-12T08:24:22;20.30;51.30
40636;DHT22;26642;55.766;37.828;2022-10-12T08:26:48;20.30;50.50
40636;DHT22;26642;55.766;37.828;2022-10-12T08:29:14;20.20;49.80
40636;DHT22;26642;55.766;37.828;2022-10-12T08:31:40;20.20;49.30
40636;DHT22;26642;55.766;37.828;2022-10-12T08:34:06;20.20;49.70
40636;DHT22;26642;55.766;37.828;2022-10-12T08:36:33;20.10;49.50
40636;DHT22;26642;55.766;37.828;2022-10-12T08:38:59;20.10;49.10
40636;DHT22;26642;55.766;37.828;2022-10-12T08:46:46;20.00;49.80
40636;DHT22;26642;55.766;37.828;2022-10-12T08:49:22;20.00;50.50
40636;DHT22;26642;55.766;37.828;2022-10-12T08:51:56;19.90;50.30
40636;DHT22;26642;55.766;37.828;2022-10-12T08:54:29;19.80;49.70
40636;DHT22;26642;55.766;37.828;2022-10-12T08:56:58;19.80;49.60
40636;DHT22;26642;55.766;37.828;2022-10-12T08:59:27;19.80;49.60
40636;DHT22;26642;55.766;37.828;2022-10-12T09:04:52;19.70;50.40
40636;DHT22;26642;55.766;37.828;2022-10-12T09:07:30;19.60;50.90
40636;DHT22;26642;55.766;37.828;2022-10-12T09:13:08;19.60;50.90
40636;DHT22;26642;55.766;37.828;2022-10-12T09:18:33;19.50;51.50
40636;DHT22;26642;55.766;37.828;2022-10-12T09:21:02;19.40;51.10
40636;DHT22;26642;55.766;37.828;2022-10-12T09:23:36;19.40;51.50
40636;DHT22;26642;55.766;37.828;2022-10-12T09:26:19;19.40;52.00
40636;DHT22;26642;55.766;37.828;2022-10-12T09:28:55;19.40;51.90
40636;DHT22;26642;55.766;37.828;2022-10-12T09:34:00;19.40;60.00
40636;DHT22;26642;55.766;37.828;2022-10-12T09:36:38;19.50;62.30
40636;DHT22;26642;55.766;37.828;2022-10-12T09:39:16;19.60;62.20
40636;DHT22;26642;55.766;37.828;2022-10-12T09:41:44;19.80;62.90
40636;DHT22;26642;55.766;37.828;2022-10-12T09:47:02;20.00;62.90
40636;DHT22;26642;55.766;37.828;2022-10-12T09:49:42;20.10;63.00
40636;DHT22;26642;55.766;37.828;2022-10-12T09:52:09;20.20;63.20
40636;DHT22;26642;55.766;37.828;2022-10-12T09:54:39;20.30;63.70
40636;DHT22;26642;55.766;37.828;2022-10-12T09:57:06;20.40;63.80
40636;DHT22;26642;55.766;37.828;2022-10-12T09:59:37;20.50;64.00
40636;DHT22;26642;55.766;37.828;2022-10-12T10:02:14;20.60;64.30
40636;DHT22;26642;55.766;37.828;2022-10-12T10:04:43;20.60;63.80
40636;DHT22;26642;55.766;37.828;2022-10-12T10:07:31;20.60;60.60
40636;DHT22;26642;55.766;37.828;2022-10-12T10:10:23;20.50;60.20
40636;DHT22;26642;55.766;37.828;2022-10-12T10:12:59;20.30;58.60
40636;DHT22;26642;55.766;37.828;2022-10-12T10:15:34;20.20;57.70
40636;DHT22;26642;55.766;37.828;2022-10-12T10:18:06;20.20;58.60
40636;DHT22;26642;55.766;37.828;2022-10-12T10:22:59;20.10;55.80
40636;DHT22;26642;55.766;37.828;2022-10-12T10:25:27;20.00;54.70
40636;DHT22;26642;55.766;37.828;2022-10-12T10:28:18;19.90;55.80
40636;DHT22;26642;55.766;37.828;2022-10-12T10:31:17;19.80;56.00
40636;DHT22;26642;55.766;37.828;2022-10-12T10:33:42;19.80;58.00
40636;DHT22;26642;55.766;37.828;2022-10-12T10:36:16;19.70;56.10
40636;DHT22;26642;55.766;37.828;2022-10-12T10:38:57;19.70;57.60
40636;DHT22;26642;55.766;37.828;2022-10-12T10:41:30;19.70;57.00
40636;DHT22;26642;55.766;37.828;2022-10-12T10:43:58;19.60;54.30
40636;DHT22;26642;55.766;37.828;2022-10-12T10:46:26;19.50;54.30
40636;DHT22;26642;55.766;37.828;2022-10-12T10:49:00;19.40;52.70
40636;DHT22;26642;55.766;37.828;2022-10-12T10:51:54;19.30;55.00
40636;DHT22;26642;55.766;37.828;2022-10-12T10:56:48;19.30;55.80
40636;DHT22;26642;55.766;37.828;2022-10-12T11:07:52;19.30;55.80
40636;DHT22;26642;55.766;37.828;2022-10-12T11:10:35;19.40;56.10
40636;DHT22;26642;55.766;37.828;2022-10-12T11:13:30;19.40;54.90
40636;DHT22;26642;55.766;37.828;2022-10-12T11:16:59;19.40;55.60
40636;DHT22;26642;55.766;37.828;2022-10-12T11:19:04;19.30;54.20
40636;DHT22;26642;55.766;37.828;2022-10-12T11:21:39;19.40;56.00
40636;DHT22;26642;55.766;37.828;2022-10-12T11:24:20;19.40;55.20
40636;DHT22;26642;55.766;37.828;2022-10-12T11:27:10;19.40;54.30
40636;DHT22;26642;55.766;37.828;2022-10-12T11:29:38;19.40;54.50
40636;DHT22;26642;55.766;37.828;2022-10-12T11:32:33;19.30;53.80
40636;DHT22;26642;55.766;37.828;2022-10-12T11:35:04;19.20;54.20
40636;DHT22;26642;55.766;37.828;2022-10-12T11:37:41;19.20;55.70
40636;DHT22;26642;55.766;37.828;2022-10-12T11:40:18;19.30;55.50
40636;DHT22;26642;55.766;37.828;2022-10-12T11:42:46;19.40;55.30
40636;DHT22;26642;55.766;37.828;2022-10-12T11:45:21;19.40;55.10
40636;DHT22;26642;55.766;37.828;2022-10-12T11:47:54;19.40;55.20
40636;DHT22;26642;55.766;37.828;2022-10-12T11:52:55;19.40;55.50
40636;DHT22;26642;55.766;37.828;2022-10-12T11:58:18;19.40;55.80
40636;DHT22;26642;55.766;37.828;2022-10-12T12:08:58;19.70;59.10
40636;DHT22;26642;55.766;37.828;2022-10-12T12:11:32;19.80;58.90
40636;DHT22;26642;55.766;37.828;2022-10-12T12:17:29;19.90;59.00
40636;DHT22;26642;55.766;37.828;2022-10-12T12:19:59;20.00;58.90
40636;DHT22;26642;55.766;37.828;2022-10-12T12:22:29;20.10;58.10
40636;DHT22;26642;55.766;37.828;2022-10-12T12:24:57;20.10;57.70
40636;DHT22;26642;55.766;37.828;2022-10-12T12:27:43;20.10;57.40
40636;DHT22;26642;55.766;37.828;2022-10-12T12:32:59;20.00;57.30
40636;DHT22;26642;55.766;37.828;2022-10-12T12:35:29;20.00;57.60
40636;DHT22;26642;55.766;37.828;2022-10-12T12:38:45;19.90;57.60
40636;DHT22;26642;55.766;37.828;2022-10-12T12:43:51;19.80;57.50
40636;DHT22;26642;55.766;37.828;2022-10-12T12:46:18;19.70;58.30
40636;DHT22;26642;55.766;37.828;2022-10-12T12:51:52;19.70;58.60
40636;DHT22;26642;55.766;37.828;2022-10-12T12:54:15;19.60;58.60
40636;DHT22;26642;55.766;37.828;2022-10-12T12:57:34;19.50;58.70
40636;DHT22;26642;55.766;37.828;2022-10-12T13:00:10;19.50;59.00
40636;DHT22;26642;55.766;37.828;2022-10-12T13:19:12;19.00;61.20
40636;DHT22;26642;55.766;37.828;2022-10-12T13:21:43;19.00;61.30
40636;DHT22;26642;55.766;37.828;2022-10-12T13:26:51;18.90;61.00
40636;DHT22;26642;55.766;37.828;2022-10-12T13:29:50;18.80;60.60
40636;DHT22;26642;55.766;37.828;2022-10-12T13:45:48;18.50;61.60
40636;DHT22;26642;55.766;37.828;2022-10-12T13:48:19;18.50;61.80
40636;DHT22;26642;55.766;37.828;2022-10-12T13:51:00;18.50;62.20
40636;DHT22;26642;55.766;37.828;2022-10-12T13:53:37;18.50;62.50
40636;DHT22;26642;55.766;37.828;2022-10-12T13:56:08;18.40;62.50
40636;DHT22;26642;55.766;37.828;2022-10-12T13:58:35;18.40;62.80
40636;DHT22;26642;55.766;37.828;2022-10-12T14:01:01;18.40;63.00
40636;DHT22;26642;55.766;37.828;2022-10-12T14:03:41;18.40;62.90
40636;DHT22;26642;55.766;37.828;2022-10-12T14:06:27;18.30;62.40
40636;DHT22;26642;55.766;37.828;2022-10-12T14:08:55;18.20;63.10
40636;DHT22;26642;55.766;37.828;2022-10-12T14:11:24;18.20;63.10
40636;DHT22;26642;55.766;37.828;2022-10-12T14:13:51;18.10;63.10
40636;DHT22;26642;55.766;37.828;2022-10-12T14:16:18;18.10;63.00
40636;DHT22;26642;55.766;37.828;2022-10-12T14:18:45;18.00;63.10
40636;DHT22;26642;55.766;37.828;2022-10-12T14:21:23;18.00;62.90
40636;DHT22;26642;55.766;37.828;2022-10-12T14:24:07;17.90;63.20
40636;DHT22;26642;55.766;37.828;2022-10-12T14:26:41;17.80;63.60
40636;DHT22;26642;55.766;37.828;2022-10-12T14:29:39;17.80;63.80
40636;DHT22;26642;55.766;37.828;2022-10-12T14:32:33;17.80;64.00
40636;DHT22;26642;55.766;37.828;2022-10-12T14:35:24;17.80;64.30
40636;DHT22;26642;55.766;37.828;2022-10-12T14:37:51;17.80;64.40
40636;DHT22;26642;55.766;37.828;2022-10-12T14:40:28;17.70;64.60
40636;DHT22;26642;55.766;37.828;2022-10-12T14:42:58;17.70;64.60
40636;DHT22;26642;55.766;37.828;2022-10-12T14:45:25;17.60;64.80
40636;DHT22;26642;55.766;37.828;2022-10-12T14:47:52;17.60;65.40
40636;DHT22;26642;55.766;37.828;2022-10-12T14:50:19;17.60;65.40
40636;DHT22;26642;55.766;37.828;2022-10-12T14:52:48;17.60;64.80
40636;DHT22;26642;55.766;37.828;2022-10-12T14:55:17;17.60;64.60
40636;DHT22;26642;55.766;37.828;2022-10-12T14:57:44;17.50;63.90
40636;DHT22;26642;55.766;37.828;2022-10-12T15:00:16;17.40;63.90
40636;DHT22;26642;55.766;37.828;2022-10-12T15:02:42;17.40;64.80
40636;DHT22;26642;55.766;37.828;2022-10-12T15:05:13;17.30;64.60
40636;DHT22;26642;55.766;37.828;2022-10-12T15:07:40;17.40;64.80
40636;DHT22;26642;55.766;37.828;2022-10-12T15:10:07;17.30;64.80
40636;DHT22;26642;55.766;37.828;2022-10-12T15:12:33;17.30;64.80
40636;DHT22;26642;55.766;37.828;2022-10-12T15:15:02;17.30;64.60
40636;DHT22;26642;55.766;37.828;2022-10-12T15:17:32;17.20;64.60
40636;DHT22;26642;55.766;37.828;2022-10-12T15:19:58;17.10;64.40
40636;DHT22;26642;55.766;37.828;2022-10-12T15:22:25;17.10;64.40
40636;DHT22;26642;55.766;37.828;2022-10-12T15:24:53;17.00;64.40
40636;DHT22;26642;55.766;37.828;2022-10-12T15:27:19;17.00;64.50
40636;DHT22;26642;55.766;37.828;2022-10-12T15:29:45;16.90;64.90
40636;DHT22;26642;55.766;37.828;2022-10-12T15:32:16;16.80;64.90
40636;DHT22;26642;55.766;37.828;2022-10-12T15:34:42;16.90;65.00
40636;DHT22;26642;55.766;37.828;2022-10-12T15:37:08;16.80;65.10
40636;DHT22;26642;55.766;37.828;2022-10-12T15:39:34;16.80;65.90
40636;DHT22;26642;55.766;37.828;2022-10-12T15:42:00;16.70;66.40
40636;DHT22;26642;55.766;37.828;2022-10-12T15:44:26;16.70;66.20
40636;DHT22;26642;55.766;37.828;2022-10-12T15:46:53;16.60;66.60
40636;DHT22;26642;55.766;37.828;2022-10-12T15:49:20;16.60;66.10
40636;DHT22;26642;55.766;37.828;2022-10-12T15:51:52;16.50;66.10
40636;DHT22;26642;55.766;37.828;2022-10-12T15:54:18;16.50;66.10
40636;DHT22;26642;55.766;37.828;2022-10-12T15:56:44;16.40;66.40
40636;DHT22;26642;55.766;37.828;2022-10-12T15:59:10;16.40;66.70
40636;DHT22;26642;55.766;37.828;2022-10-12T16:01:37;16.40;66.60
40636;DHT22;26642;55.766;37.828;2022-10-12T16:04:04;16.30;66.70
40636;DHT22;26642;55.766;37.828;2022-10-12T16:06:31;16.30;66.90
40636;DHT22;26642;55.766;37.828;2022-10-12T16:08:57;16.30;67.10
40636;DHT22;26642;55.766;37.828;2022-10-12T16:11:22;16.20;67.30
40636;DHT22;26642;55.766;37.828;2022-10-12T16:13:48;16.20;67.40
40636;DHT22;26642;55.766;37.828;2022-10-12T16:16:15;16.20;67.40
40636;DHT22;26642;55.766;37.828;2022-10-12T16:18:42;16.10;67.50
40636;DHT22;26642;55.766;37.828;2022-10-12T16:21:08;16.10;67.90
40636;DHT22;26642;55.766;37.828;2022-10-12T16:23:35;16.10;68.00
40636;DHT22;26642;55.766;37.828;2022-10-12T16:26:07;16.00;68.20
40636;DHT22;26642;55.766;37.828;2022-10-12T16:28:34;16.00;68.40
40636;DHT22;26642;55.766;37.828;2022-10-12T16:31:00;16.00;68.40
40636;DHT22;26642;55.766;37.828;2022-10-12T16:33:26;16.00;68.30
40636;DHT22;26642;55.766;37.828;2022-10-12T16:35:53;16.00;68.40
40636;DHT22;26642;55.766;37.828;2022-10-12T16:38:18;15.90;68.40
40636;DHT22;26642;55.766;37.828;2022-10-12T16:40:45;15.90;68.10
40636;DHT22;26642;55.766;37.828;2022-10-12T16:43:13;15.80;67.90
40636;DHT22;26642;55.766;37.828;2022-10-12T16:45:39;15.80;68.40
40636;DHT22;26642;55.766;37.828;2022-10-12T16:48:05;15.70;68.70
40636;DHT22;26642;55.766;37.828;2022-10-12T16:50:31;15.60;68.90
40636;DHT22;26642;55.766;37.828;2022-10-12T16:52:57;15.60;68.70
40636;DHT22;26642;55.766;37.828;2022-10-12T16:55:23;15.60;68.60
40636;DHT22;26642;55.766;37.828;2022-10-12T16:57:49;15.60;68.70
40636;DHT22;26642;55.766;37.828;2022-10-12T17:00:17;15.60;68.80
40636;DHT22;26642;55.766;37.828;2022-10-12T17:02:45;15.50;68.80
40636;DHT22;26642;55.766;37.828;2022-10-12T17:05:10;15.50;68.40
40636;DHT22;26642;55.766;37.828;2022-10-12T17:07:36;15.50;68.60
40636;DHT22;26642;55.766;37.828;2022-10-12T17:10:03;15.40;68.80
40636;DHT22;26642;55.766;37.828;2022-10-12T17:12:29;15.40;69.40
40636;DHT22;26642;55.766;37.828;2022-10-12T17:14:55;15.40;69.40
40636;DHT22;26642;55.766;37.828;2022-10-12T17:17:21;15.40;69.80
40636;DHT22;26642;55.766;37.828;2022-10-12T17:19:47;15.40;70.40
40636;DHT22;26642;55.766;37.828;2022-10-12T17:22:14;15.30;70.30
40636;DHT22;26642;55.766;37.828;2022-10-12T17:24:41;15.30;70.50
40636;DHT22;26642;55.766;37.828;2022-10-12T17:27:10;15.40;84.10
40636;DHT22;26642;55.766;37.828;2022-10-12T17:29:37;15.50;80.10
40636;DHT22;26642;55.766;37.828;2022-10-12T17:32:10;15.60;79.60